Airfield :
LOGIN :

Register | Disclaimer

   EN    FR    IT 

 










Legend :    VFR   Marginal VFR   IFR   Intensive IFR   Very Intensive IFR
Visi :
Ceiling :
>= 8 km
>= 3000ft
5 to 8 km
1000 to 3000 ft
1500m to 5 km
500 to 1000 ft
800 to 1500m
200 to 500 ft
< 800m
< 200 ft
Symbols :   Thunderstorms  Fog  Heavy snow  Heavy precipitations  Wind > 20 kt
SIGMETs :     Misc.  Thunderstorms  Icing  Turbulence  Mountain Waves  Volcanic Ashes






- Airport Elevation : 37 ft
- IATA code : FRO


ENFL - Florø

CURRENT METAR :
  • 280020Z AUTO 11011KT //// R07///// -SN SCT007/// BKN014/// OVC019/// 00/M00 Q0993

EXPIRED METARs :
  • 272350Z AUTO 12010KT //// R07///// -SN VV007 00/M01 Q0993
  • 272320Z AUTO 12012KT //// R07///// -SN SCT007/// BKN012/// OVC017/// 01/M00 Q0992
  • 272250Z AUTO 13012KT //// R07///// -SN FEW008/// OVC013/// 01/M00 Q0992
  • 272220Z 12013KT 8000 -SHSN FEW006 SCT008 BKN012 01/M00 Q0992
  • 272150Z 12015KT 4000 -SHSN FEW007 BKN010 BKN014 00/M01 Q0992 RESHSN

TAF AMD TAF ENFL
Valid from the 27 at 22:00 until the 28 at 06:00 UTC


272220Z 2722/2806 13015KT 9999 -SHSNRA FEW015CB BKN020
TEMPO 2722/2806 0800 SHSN VV006
PROB30 2722/2806 1200 SN VV009



MET'MAP, your aeronautical weather chart ! - Copyright ORBIFLY December 2007 - Disclaimer

ORBIFLY MET'MAP TEAM :

Programming & Development : Alexandra Zaïnal
Concept & original design : Baudouin d'Aumeries
Assistance for programming : Marc-Olivier Méhu
Technical & hardware support : Manuel Goepfert

Contact : metmap@orbifly.com




SOURCES & CREDITS :

   NOAA